sensor_id;sensor_type;location;lat;lon;timestamp;temperature;humidity
67279;DHT22;54193;53.746;10.058;2022-11-15T00:01:33;5.70;93.85
67279;DHT22;54193;53.746;10.058;2022-11-15T00:04:19;5.65;93.80
67279;DHT22;54193;53.746;10.058;2022-11-15T00:07:04;5.62;93.84
67279;DHT22;54193;53.746;10.058;2022-11-15T00:09:50;5.62;93.90
67279;DHT22;54193;53.746;10.058;2022-11-15T00:12:35;5.59;93.77
67279;DHT22;54193;53.746;10.058;2022-11-15T00:15:21;5.52;93.85
67279;DHT22;54193;53.746;10.058;2022-11-15T00:18:12;5.49;93.86
67279;DHT22;54193;53.746;10.058;2022-11-15T00:21:07;5.42;93.95
67279;DHT22;54193;53.746;10.058;2022-11-15T00:23:53;5.42;94.05
67279;DHT22;54193;53.746;10.058;2022-11-15T00:26:39;5.34;94.06
67279;DHT22;54193;53.746;10.058;2022-11-15T00:29:24;5.34;94.17
67279;DHT22;54193;53.746;10.058;2022-11-15T00:32:10;5.34;94.18
67279;DHT22;54193;53.746;10.058;2022-11-15T00:34:56;5.26;94.17
67279;DHT22;54193;53.746;10.058;2022-11-15T00:37:41;5.34;94.38
67279;DHT22;54193;53.746;10.058;2022-11-15T00:40:27;5.30;94.32
67279;DHT22;54193;53.746;10.058;2022-11-15T00:43:13;5.28;94.37
67279;DHT22;54193;53.746;10.058;2022-11-15T00:45:58;5.27;94.32
67279;DHT22;54193;53.746;10.058;2022-11-15T00:48:44;5.24;94.33
67279;DHT22;54193;53.746;10.058;2022-11-15T00:51:29;5.26;94.41
67279;DHT22;54193;53.746;10.058;2022-11-15T00:54:15;5.21;94.38
67279;DHT22;54193;53.746;10.058;2022-11-15T00:57:01;5.26;94.42
67279;DHT22;54193;53.746;10.058;2022-11-15T00:59:46;5.30;94.38
67279;DHT22;54193;53.746;10.058;2022-11-15T01:02:32;5.28;94.35
67279;DHT22;54193;53.746;10.058;2022-11-15T01:05:18;5.28;94.31
67279;DHT22;54193;53.746;10.058;2022-11-15T01:08:03;5.28;94.31
67279;DHT22;54193;53.746;10.058;2022-11-15T01:10:49;5.26;94.30
67279;DHT22;54193;53.746;10.058;2022-11-15T01:13:36;5.27;94.30
67279;DHT22;54193;53.746;10.058;2022-11-15T01:16:22;5.23;94.27
67279;DHT22;54193;53.746;10.058;2022-11-15T01:19:07;5.18;94.27
67279;DHT22;54193;53.746;10.058;2022-11-15T01:21:53;5.14;94.29
67279;DHT22;54193;53.746;10.058;2022-11-15T01:24:38;5.13;94.34
67279;DHT22;54193;53.746;10.058;2022-11-15T01:27:24;5.09;94.36
67279;DHT22;54193;53.746;10.058;2022-11-15T01:30:10;5.07;94.39
67279;DHT22;54193;53.746;10.058;2022-11-15T01:32:55;5.07;94.46
67279;DHT22;54193;53.746;10.058;2022-11-15T01:35:41;5.04;94.50
67279;DHT22;54193;53.746;10.058;2022-11-15T01:38:27;5.01;94.49
67279;DHT22;54193;53.746;10.058;2022-11-15T01:41:19;4.92;94.40
67279;DHT22;54193;53.746;10.058;2022-11-15T01:47:31;4.84;94.42
67279;DHT22;54193;53.746;10.058;2022-11-15T01:50:25;4.87;94.53
67279;DHT22;54193;53.746;10.058;2022-11-15T01:53:14;4.84;94.56
67279;DHT22;54193;53.746;10.058;2022-11-15T01:56:02;4.79;94.54
67279;DHT22;54193;53.746;10.058;2022-11-15T01:58:49;4.73;94.49
67279;DHT22;54193;53.746;10.058;2022-11-15T02:01:37;4.72;94.68
67279;DHT22;54193;53.746;10.058;2022-11-15T02:04:28;4.66;94.68
67279;DHT22;54193;53.746;10.058;2022-11-15T02:07:19;4.61;94.71
67279;DHT22;54193;53.746;10.058;2022-11-15T02:10:17;4.55;94.71
67279;DHT22;54193;53.746;10.058;2022-11-15T02:13:03;4.53;94.72
67279;DHT22;54193;53.746;10.058;2022-11-15T02:31:10;4.21;94.51
67279;DHT22;54193;53.746;10.058;2022-11-15T02:37:10;3.90;94.55
67279;DHT22;54193;53.746;10.058;2022-11-15T02:43:09;3.83;94.49
67279;DHT22;54193;53.746;10.058;2022-11-15T02:49:37;3.80;94.37
67279;DHT22;54193;53.746;10.058;2022-11-15T02:52:24;3.70;94.35
67279;DHT22;54193;53.746;10.058;2022-11-15T03:07:19;3.25;94.70
67279;DHT22;54193;53.746;10.058;2022-11-15T03:10:18;3.11;94.81
67279;DHT22;54193;53.746;10.058;2022-11-15T03:16:11;3.56;94.77
67279;DHT22;54193;53.746;10.058;2022-11-15T03:19:17;3.60;94.67
67279;DHT22;54193;53.746;10.058;2022-11-15T03:22:11;3.75;95.03
67279;DHT22;54193;53.746;10.058;2022-11-15T03:25:02;3.76;95.01
67279;DHT22;54193;53.746;10.058;2022-11-15T03:27:52;3.80;95.20
67279;DHT22;54193;53.746;10.058;2022-11-15T03:30:39;3.73;94.98
67279;DHT22;54193;53.746;10.058;2022-11-15T03:33:26;3.62;94.98
67279;DHT22;54193;53.746;10.058;2022-11-15T03:36:14;3.60;94.99
67279;DHT22;54193;53.746;10.058;2022-11-15T03:39:02;3.30;94.89
67279;DHT22;54193;53.746;10.058;2022-11-15T03:45:46;3.14;94.86
67279;DHT22;54193;53.746;10.058;2022-11-15T03:48:25;3.35;94.97
67279;DHT22;54193;53.746;10.058;2022-11-15T03:51:12;3.41;94.93
67279;DHT22;54193;53.746;10.058;2022-11-15T03:53:57;3.49;95.09
67279;DHT22;54193;53.746;10.058;2022-11-15T03:56:43;3.52;95.06
67279;DHT22;54193;53.746;10.058;2022-11-15T03:59:29;3.55;95.18
67279;DHT22;54193;53.746;10.058;2022-11-15T04:02:15;3.52;95.17
67279;DHT22;54193;53.746;10.058;2022-11-15T04:05:00;3.45;95.27
67279;DHT22;54193;53.746;10.058;2022-11-15T04:07:46;3.18;95.41
67279;DHT22;54193;53.746;10.058;2022-11-15T04:10:32;3.18;95.96
67279;DHT22;54193;53.746;10.058;2022-11-15T04:13:17;3.07;95.62
67279;DHT22;54193;53.746;10.058;2022-11-15T04:16:03;3.03;95.35
67279;DHT22;54193;53.746;10.058;2022-11-15T04:18:49;2.90;95.45
67279;DHT22;54193;53.746;10.058;2022-11-15T04:21:54;3.01;95.63
67279;DHT22;54193;53.746;10.058;2022-11-15T04:24:58;3.11;95.74
67279;DHT22;54193;53.746;10.058;2022-11-15T04:27:44;3.01;95.53
67279;DHT22;54193;53.746;10.058;2022-11-15T04:30:29;3.11;96.01
67279;DHT22;54193;53.746;10.058;2022-11-15T04:33:15;3.14;95.78
67279;DHT22;54193;53.746;10.058;2022-11-15T04:36:01;3.07;96.16
67279;DHT22;54193;53.746;10.058;2022-11-15T04:39:05;3.28;95.98
67279;DHT22;54193;53.746;10.058;2022-11-15T04:41:50;3.30;96.01
67279;DHT22;54193;53.746;10.058;2022-11-15T04:44:36;3.30;96.13
67279;DHT22;54193;53.746;10.058;2022-11-15T04:47:22;3.34;96.18
67279;DHT22;54193;53.746;10.058;2022-11-15T04:50:08;3.52;96.18
67279;DHT22;54193;53.746;10.058;2022-11-15T04:52:53;3.68;96.37
67279;DHT22;54193;53.746;10.058;2022-11-15T04:55:39;3.93;96.43
67279;DHT22;54193;53.746;10.058;2022-11-15T04:58:25;4.10;96.52
67279;DHT22;54193;53.746;10.058;2022-11-15T05:01:12;4.17;96.57
67279;DHT22;54193;53.746;10.058;2022-11-15T05:03:59;3.97;96.19
67279;DHT22;54193;53.746;10.058;2022-11-15T05:07:04;3.87;96.08
67279;DHT22;54193;53.746;10.058;2022-11-15T05:09:49;3.78;96.07
67279;DHT22;54193;53.746;10.058;2022-11-15T05:12:35;3.70;96.11
67279;DHT22;54193;53.746;10.058;2022-11-15T05:15:21;3.76;96.02
67279;DHT22;54193;53.746;10.058;2022-11-15T05:18:06;3.73;95.89
67279;DHT22;54193;53.746;10.058;2022-11-15T05:20:52;3.86;95.97
67279;DHT22;54193;53.746;10.058;2022-11-15T05:23:38;4.00;96.02
67279;DHT22;54193;53.746;10.058;2022-11-15T05:26:24;4.06;96.10
67279;DHT22;54193;53.746;10.058;2022-11-15T05:29:09;4.25;96.32
67279;DHT22;54193;53.746;10.058;2022-11-15T05:31:56;4.30;96.35
67279;DHT22;54193;53.746;10.058;2022-11-15T05:34:42;4.35;96.42
67279;DHT22;54193;53.746;10.058;2022-11-15T05:37:28;4.42;96.43
67279;DHT22;54193;53.746;10.058;2022-11-15T05:40:14;4.45;96.45
67279;DHT22;54193;53.746;10.058;2022-11-15T05:43:02;4.53;96.49
67279;DHT22;54193;53.746;10.058;2022-11-15T05:45:49;4.53;96.49
67279;DHT22;54193;53.746;10.058;2022-11-15T05:48:38;4.53;96.41
67279;DHT22;54193;53.746;10.058;2022-11-15T05:51:26;4.58;96.41
67279;DHT22;54193;53.746;10.058;2022-11-15T05:54:14;4.61;96.36
67279;DHT22;54193;53.746;10.058;2022-11-15T05:57:00;4.59;96.29
67279;DHT22;54193;53.746;10.058;2022-11-15T05:59:46;4.65;96.43
67279;DHT22;54193;53.746;10.058;2022-11-15T06:02:31;4.73;96.48
67279;DHT22;54193;53.746;10.058;2022-11-15T06:05:17;4.79;96.32
67279;DHT22;54193;53.746;10.058;2022-11-15T06:08:02;4.80;96.39
67279;DHT22;54193;53.746;10.058;2022-11-15T06:10:48;4.84;96.44
67279;DHT22;54193;53.746;10.058;2022-11-15T06:13:34;4.94;96.45
67279;DHT22;54193;53.746;10.058;2022-11-15T06:16:20;5.00;96.50
67279;DHT22;54193;53.746;10.058;2022-11-15T06:19:06;5.00;96.33
67279;DHT22;54193;53.746;10.058;2022-11-15T06:21:52;5.07;96.37
67279;DHT22;54193;53.746;10.058;2022-11-15T06:24:38;5.04;96.37
67279;DHT22;54193;53.746;10.058;2022-11-15T06:27:24;5.07;96.39
67279;DHT22;54193;53.746;10.058;2022-11-15T06:30:09;5.13;96.44
67279;DHT22;54193;53.746;10.058;2022-11-15T06:33:00;5.20;96.42
67279;DHT22;54193;53.746;10.058;2022-11-15T06:35:46;5.20;96.28
67279;DHT22;54193;53.746;10.058;2022-11-15T06:38:32;5.27;96.28
67279;DHT22;54193;53.746;10.058;2022-11-15T06:41:17;5.31;96.36
67279;DHT22;54193;53.746;10.058;2022-11-15T06:44:03;5.28;96.12
67279;DHT22;54193;53.746;10.058;2022-11-15T06:46:49;5.32;96.16
67279;DHT22;54193;53.746;10.058;2022-11-15T06:49:34;5.35;96.15
67279;DHT22;54193;53.746;10.058;2022-11-15T06:52:20;5.37;96.10
67279;DHT22;54193;53.746;10.058;2022-11-15T06:55:07;5.42;96.06
67279;DHT22;54193;53.746;10.058;2022-11-15T06:57:53;5.42;95.73
67279;DHT22;54193;53.746;10.058;2022-11-15T07:00:39;5.48;95.59
67279;DHT22;54193;53.746;10.058;2022-11-15T07:03:24;5.51;95.45
67279;DHT22;54193;53.746;10.058;2022-11-15T07:06:11;5.51;95.26
67279;DHT22;54193;53.746;10.058;2022-11-15T07:08:56;5.58;95.22
67279;DHT22;54193;53.746;10.058;2022-11-15T07:11:42;5.60;95.15
67279;DHT22;54193;53.746;10.058;2022-11-15T07:14:28;5.66;95.10
67279;DHT22;54193;53.746;10.058;2022-11-15T07:17:13;5.75;94.91
67279;DHT22;54193;53.746;10.058;2022-11-15T07:19:59;5.77;95.05
67279;DHT22;54193;53.746;10.058;2022-11-15T07:22:45;5.83;94.88
67279;DHT22;54193;53.746;10.058;2022-11-15T07:25:31;5.90;95.05
67279;DHT22;54193;53.746;10.058;2022-11-15T07:28:16;5.97;94.76
67279;DHT22;54193;53.746;10.058;2022-11-15T07:31:06;6.00;94.50
67279;DHT22;54193;53.746;10.058;2022-11-15T07:33:52;6.03;94.38
67279;DHT22;54193;53.746;10.058;2022-11-15T07:36:38;6.06;94.33
67279;DHT22;54193;53.746;10.058;2022-11-15T07:39:23;6.13;94.23
67279;DHT22;54193;53.746;10.058;2022-11-15T07:42:09;6.17;94.17
67279;DHT22;54193;53.746;10.058;2022-11-15T07:45:14;6.23;94.05
67279;DHT22;54193;53.746;10.058;2022-11-15T07:48:00;6.27;93.93
67279;DHT22;54193;53.746;10.058;2022-11-15T07:50:45;6.30;93.86
67279;DHT22;54193;53.746;10.058;2022-11-15T07:53:31;6.34;93.70
67279;DHT22;54193;53.746;10.058;2022-11-15T07:56:17;6.38;93.70
67279;DHT22;54193;53.746;10.058;2022-11-15T07:59:03;6.42;93.62
67279;DHT22;54193;53.746;10.058;2022-11-15T08:01:48;6.45;93.51
67279;DHT22;54193;53.746;10.058;2022-11-15T08:04:34;6.46;93.32
67279;DHT22;54193;53.746;10.058;2022-11-15T08:07:20;6.49;93.33
67279;DHT22;54193;53.746;10.058;2022-11-15T08:10:06;6.55;93.21
67279;DHT22;54193;53.746;10.058;2022-11-15T08:13:00;6.59;93.24
67279;DHT22;54193;53.746;10.058;2022-11-15T08:15:46;6.67;93.20
67279;DHT22;54193;53.746;10.058;2022-11-15T08:18:32;6.72;93.06
67279;DHT22;54193;53.746;10.058;2022-11-15T08:21:20;6.75;93.04
67279;DHT22;54193;53.746;10.058;2022-11-15T08:24:09;6.79;92.97
67279;DHT22;54193;53.746;10.058;2022-11-15T08:26:55;6.76;92.75
67279;DHT22;54193;53.746;10.058;2022-11-15T08:29:44;6.72;92.70
67279;DHT22;54193;53.746;10.058;2022-11-15T08:32:31;6.71;92.67
67279;DHT22;54193;53.746;10.058;2022-11-15T08:35:18;6.73;92.66
67279;DHT22;54193;53.746;10.058;2022-11-15T08:38:04;6.82;92.66
67279;DHT22;54193;53.746;10.058;2022-11-15T08:40:51;6.88;92.60
67279;DHT22;54193;53.746;10.058;2022-11-15T08:43:38;6.88;92.14
67279;DHT22;54193;53.746;10.058;2022-11-15T08:46:24;6.92;92.36
67279;DHT22;54193;53.746;10.058;2022-11-15T08:49:09;6.89;92.21
67279;DHT22;54193;53.746;10.058;2022-11-15T08:51:55;6.95;92.30
67279;DHT22;54193;53.746;10.058;2022-11-15T08:54:40;6.96;92.16
67279;DHT22;54193;53.746;10.058;2022-11-15T08:57:28;7.04;92.17
67279;DHT22;54193;53.746;10.058;2022-11-15T09:00:15;7.10;92.13
67279;DHT22;54193;53.746;10.058;2022-11-15T09:03:04;7.16;91.81
67279;DHT22;54193;53.746;10.058;2022-11-15T09:05:58;7.18;91.78
67279;DHT22;54193;53.746;10.058;2022-11-15T09:08:43;7.20;91.69
67279;DHT22;54193;53.746;10.058;2022-11-15T09:11:29;7.23;91.71
67279;DHT22;54193;53.746;10.058;2022-11-15T09:14:15;7.26;91.76
67279;DHT22;54193;53.746;10.058;2022-11-15T09:17:01;7.27;91.70
67279;DHT22;54193;53.746;10.058;2022-11-15T09:19:46;7.31;91.74
67279;DHT22;54193;53.746;10.058;2022-11-15T09:22:32;7.37;91.68
67279;DHT22;54193;53.746;10.058;2022-11-15T09:25:18;7.41;91.53
67279;DHT22;54193;53.746;10.058;2022-11-15T09:28:08;7.44;91.57
67279;DHT22;54193;53.746;10.058;2022-11-15T09:31:02;7.47;91.49
67279;DHT22;54193;53.746;10.058;2022-11-15T09:33:48;7.50;91.40
67279;DHT22;54193;53.746;10.058;2022-11-15T09:36:34;7.55;91.51
67279;DHT22;54193;53.746;10.058;2022-11-15T09:39:20;7.58;91.48
67279;DHT22;54193;53.746;10.058;2022-11-15T09:42:23;7.61;91.34
67279;DHT22;54193;53.746;10.058;2022-11-15T09:45:26;7.66;91.28
67279;DHT22;54193;53.746;10.058;2022-11-15T09:51:51;7.79;91.14
67279;DHT22;54193;53.746;10.058;2022-11-15T09:54:39;7.85;91.13
67279;DHT22;54193;53.746;10.058;2022-11-15T09:57:45;7.86;91.04
67279;DHT22;54193;53.746;10.058;2022-11-15T10:00:44;7.89;91.03
67279;DHT22;54193;53.746;10.058;2022-11-15T10:03:35;7.96;91.20
67279;DHT22;54193;53.746;10.058;2022-11-15T10:06:26;8.07;91.05
67279;DHT22;54193;53.746;10.058;2022-11-15T10:09:44;8.10;90.84
67279;DHT22;54193;53.746;10.058;2022-11-15T10:12:32;8.11;90.73
67279;DHT22;54193;53.746;10.058;2022-11-15T10:15:18;8.16;90.79
67279;DHT22;54193;53.746;10.058;2022-11-15T10:18:12;8.20;90.69
67279;DHT22;54193;53.746;10.058;2022-11-15T10:21:07;8.33;90.46
67279;DHT22;54193;53.746;10.058;2022-11-15T10:23:57;8.33;90.40
67279;DHT22;54193;53.746;10.058;2022-11-15T10:26:47;8.40;90.48
67279;DHT22;54193;53.746;10.058;2022-11-15T10:29:33;8.47;90.46
67279;DHT22;54193;53.746;10.058;2022-11-15T10:32:21;8.54;90.34
67279;DHT22;54193;53.746;10.058;2022-11-15T10:35:21;8.57;90.09
67279;DHT22;54193;53.746;10.058;2022-11-15T10:38:10;8.59;90.06
67279;DHT22;54193;53.746;10.058;2022-11-15T10:41:06;8.61;90.11
67279;DHT22;54193;53.746;10.058;2022-11-15T10:47:07;8.72;90.25
67279;DHT22;54193;53.746;10.058;2022-11-15T10:50:31;8.76;89.92
67279;DHT22;54193;53.746;10.058;2022-11-15T10:53:28;8.78;89.92
67279;DHT22;54193;53.746;10.058;2022-11-15T10:56:21;8.75;89.68
67279;DHT22;54193;53.746;10.058;2022-11-15T10:59:15;8.83;89.81
67279;DHT22;54193;53.746;10.058;2022-11-15T11:02:01;8.89;89.85
67279;DHT22;54193;53.746;10.058;2022-11-15T11:04:50;8.93;89.78
67279;DHT22;54193;53.746;10.058;2022-11-15T11:07:36;8.90;89.81
67279;DHT22;54193;53.746;10.058;2022-11-15T11:10:22;8.93;89.77
67279;DHT22;54193;53.746;10.058;2022-11-15T11:13:28;9.02;89.83
67279;DHT22;54193;53.746;10.058;2022-11-15T11:22:22;9.20;89.68
67279;DHT22;54193;53.746;10.058;2022-11-15T11:32:01;9.37;89.71
67279;DHT22;54193;53.746;10.058;2022-11-15T11:35:14;9.44;89.53
67279;DHT22;54193;53.746;10.058;2022-11-15T11:41:55;9.55;89.43
67279;DHT22;54193;53.746;10.058;2022-11-15T11:45:12;9.63;89.38
67279;DHT22;54193;53.746;10.058;2022-11-15T11:48:18;9.68;89.11
67279;DHT22;54193;53.746;10.058;2022-11-15T11:51:12;9.74;89.07
67279;DHT22;54193;53.746;10.058;2022-11-15T11:54:05;9.83;88.69
67279;DHT22;54193;53.746;10.058;2022-11-15T11:56:52;9.88;88.76
67279;DHT22;54193;53.746;10.058;2022-11-15T11:59:43;9.93;88.83
67279;DHT22;54193;53.746;10.058;2022-11-15T12:02:38;9.93;88.81
67279;DHT22;54193;53.746;10.058;2022-11-15T12:05:42;10.05;88.70
67279;DHT22;54193;53.746;10.058;2022-11-15T12:08:46;10.07;88.46
67279;DHT22;54193;53.746;10.058;2022-11-15T12:11:43;10.09;88.11
67279;DHT22;54193;53.746;10.058;2022-11-15T12:14:42;10.17;88.30
67279;DHT22;54193;53.746;10.058;2022-11-15T12:17:30;10.14;88.19
67279;DHT22;54193;53.746;10.058;2022-11-15T12:20:25;10.16;88.46
67279;DHT22;54193;53.746;10.058;2022-11-15T12:23:28;10.10;88.34
67279;DHT22;54193;53.746;10.058;2022-11-15T12:26:22;10.10;88.39
67279;DHT22;54193;53.746;10.058;2022-11-15T12:29:20;10.12;88.38
67279;DHT22;54193;53.746;10.058;2022-11-15T12:32:23;10.20;88.31
67279;DHT22;54193;53.746;10.058;2022-11-15T12:35:32;10.27;88.19
67279;DHT22;54193;53.746;10.058;2022-11-15T12:38:53;10.29;88.15
67279;DHT22;54193;53.746;10.058;2022-11-15T12:47:27;10.33;88.22
67279;DHT22;54193;53.746;10.058;2022-11-15T12:50:14;10.34;88.00
67279;DHT22;54193;53.746;10.058;2022-11-15T12:59:06;10.36;88.25
67279;DHT22;54193;53.746;10.058;2022-11-15T13:01:56;10.40;88.28
67279;DHT22;54193;53.746;10.058;2022-11-15T13:04:42;10.44;88.18
67279;DHT22;54193;53.746;10.058;2022-11-15T13:13:44;10.47;88.13
67279;DHT22;54193;53.746;10.058;2022-11-15T13:16:31;10.48;88.29
67279;DHT22;54193;53.746;10.058;2022-11-15T13:19:19;10.48;88.36
67279;DHT22;54193;53.746;10.058;2022-11-15T13:22:11;10.45;88.29
67279;DHT22;54193;53.746;10.058;2022-11-15T13:31:02;10.47;88.69
67279;DHT22;54193;53.746;10.058;2022-11-15T13:33:48;10.53;88.39
67279;DHT22;54193;53.746;10.058;2022-11-15T13:36:34;10.54;88.18
67279;DHT22;54193;53.746;10.058;2022-11-15T13:39:34;10.61;88.12
67279;DHT22;54193;53.746;10.058;2022-11-15T13:42:21;10.68;88.15
67279;DHT22;54193;53.746;10.058;2022-11-15T13:45:16;10.72;88.14
67279;DHT22;54193;53.746;10.058;2022-11-15T13:48:02;10.71;87.89
67279;DHT22;54193;53.746;10.058;2022-11-15T13:50:48;10.75;87.93
67279;DHT22;54193;53.746;10.058;2022-11-15T13:53:36;10.79;88.04
67279;DHT22;54193;53.746;10.058;2022-11-15T13:56:24;10.78;88.01
67279;DHT22;54193;53.746;10.058;2022-11-15T13:59:20;10.79;88.03
67279;DHT22;54193;53.746;10.058;2022-11-15T14:02:15;10.75;87.98
67279;DHT22;54193;53.746;10.058;2022-11-15T14:05:04;10.72;88.13
67279;DHT22;54193;53.746;10.058;2022-11-15T14:10:42;10.71;87.99
67279;DHT22;54193;53.746;10.058;2022-11-15T14:13:30;10.75;88.21
67279;DHT22;54193;53.746;10.058;2022-11-15T14:16:20;10.74;88.08
67279;DHT22;54193;53.746;10.058;2022-11-15T14:19:10;10.72;88.31
67279;DHT22;54193;53.746;10.058;2022-11-15T14:22:26;10.74;87.98
67279;DHT22;54193;53.746;10.058;2022-11-15T14:25:21;10.69;88.14
67279;DHT22;54193;53.746;10.058;2022-11-15T14:28:36;10.68;88.19
67279;DHT22;54193;53.746;10.058;2022-11-15T14:31:23;10.69;88.18
67279;DHT22;54193;53.746;10.058;2022-11-15T14:34:09;10.65;88.06
67279;DHT22;54193;53.746;10.058;2022-11-15T14:36:54;10.62;88.32
67279;DHT22;54193;53.746;10.058;2022-11-15T14:39:40;10.61;88.33
67279;DHT22;54193;53.746;10.058;2022-11-15T14:42:25;10.55;88.43
67279;DHT22;54193;53.746;10.058;2022-11-15T14:45:17;10.53;88.64
67279;DHT22;54193;53.746;10.058;2022-11-15T14:48:04;10.51;88.69
67279;DHT22;54193;53.746;10.058;2022-11-15T14:50:49;10.44;88.74
67279;DHT22;54193;53.746;10.058;2022-11-15T14:53:35;10.40;88.89
67279;DHT22;54193;53.746;10.058;2022-11-15T14:56:21;10.38;88.85
67279;DHT22;54193;53.746;10.058;2022-11-15T14:59:06;10.38;88.96
67279;DHT22;54193;53.746;10.058;2022-11-15T15:01:52;10.36;88.92
67279;DHT22;54193;53.746;10.058;2022-11-15T15:04:37;10.32;88.96
67279;DHT22;54193;53.746;10.058;2022-11-15T15:07:23;10.29;89.04
67279;DHT22;54193;53.746;10.058;2022-11-15T15:10:09;10.21;89.25
67279;DHT22;54193;53.746;10.058;2022-11-15T15:12:55;10.13;89.59
67279;DHT22;54193;53.746;10.058;2022-11-15T15:15:41;10.07;89.71
67279;DHT22;54193;53.746;10.058;2022-11-15T15:18:26;9.98;89.73
67279;DHT22;54193;53.746;10.058;2022-11-15T15:21:25;9.95;89.95
67279;DHT22;54193;53.746;10.058;2022-11-15T15:24:15;9.86;90.23
67279;DHT22;54193;53.746;10.058;2022-11-15T15:27:01;9.83;90.26
67279;DHT22;54193;53.746;10.058;2022-11-15T15:29:47;9.74;90.33
67279;DHT22;54193;53.746;10.058;2022-11-15T15:32:33;9.67;90.42
67279;DHT22;54193;53.746;10.058;2022-11-15T15:35:19;9.69;90.50
67279;DHT22;54193;53.746;10.058;2022-11-15T15:38:04;9.63;90.60
67279;DHT22;54193;53.746;10.058;2022-11-15T15:40:52;9.63;90.68
67279;DHT22;54193;53.746;10.058;2022-11-15T15:43:38;9.55;90.66
67279;DHT22;54193;53.746;10.058;2022-11-15T15:46:24;9.48;90.76
67279;DHT22;54193;53.746;10.058;2022-11-15T15:49:10;9.48;90.84
67279;DHT22;54193;53.746;10.058;2022-11-15T15:51:55;9.42;90.97
67279;DHT22;54193;53.746;10.058;2022-11-15T15:54:41;9.40;91.08
67279;DHT22;54193;53.746;10.058;2022-11-15T15:57:27;9.35;91.18
67279;DHT22;54193;53.746;10.058;2022-11-15T16:00:13;9.30;91.25
67279;DHT22;54193;53.746;10.058;2022-11-15T16:02:59;9.33;91.26
67279;DHT22;54193;53.746;10.058;2022-11-15T16:05:44;9.31;91.26
67279;DHT22;54193;53.746;10.058;2022-11-15T16:08:30;9.30;91.17
67279;DHT22;54193;53.746;10.058;2022-11-15T16:11:16;9.27;91.26
67279;DHT22;54193;53.746;10.058;2022-11-15T16:14:01;9.26;91.40
67279;DHT22;54193;53.746;10.058;2022-11-15T16:16:47;9.27;91.37
67279;DHT22;54193;53.746;10.058;2022-11-15T16:19:32;9.28;91.38
67279;DHT22;54193;53.746;10.058;2022-11-15T16:22:18;9.34;91.29
67279;DHT22;54193;53.746;10.058;2022-11-15T16:25:04;9.31;91.25
67279;DHT22;54193;53.746;10.058;2022-11-15T16:27:50;9.30;91.33
67279;DHT22;54193;53.746;10.058;2022-11-15T16:30:35;9.26;91.35
67279;DHT22;54193;53.746;10.058;2022-11-15T16:33:21;9.19;91.44
67279;DHT22;54193;53.746;10.058;2022-11-15T16:36:22;9.09;91.57
67279;DHT22;54193;53.746;10.058;2022-11-15T16:39:11;9.02;91.75
67279;DHT22;54193;53.746;10.058;2022-11-15T16:41:58;8.92;91.85
67279;DHT22;54193;53.746;10.058;2022-11-15T16:44:45;8.96;92.09
67279;DHT22;54193;53.746;10.058;2022-11-15T16:47:30;8.97;92.18
67279;DHT22;54193;53.746;10.058;2022-11-15T16:50:21;9.00;92.17
67279;DHT22;54193;53.746;10.058;2022-11-15T16:53:08;8.99;92.10
67279;DHT22;54193;53.746;10.058;2022-11-15T16:55:54;9.00;92.16
67279;DHT22;54193;53.746;10.058;2022-11-15T16:58:40;8.95;92.17
67279;DHT22;54193;53.746;10.058;2022-11-15T17:01:28;8.97;92.23
67279;DHT22;54193;53.746;10.058;2022-11-15T17:04:19;8.99;92.29
67279;DHT22;54193;53.746;10.058;2022-11-15T17:07:07;9.07;92.10
67279;DHT22;54193;53.746;10.058;2022-11-15T17:09:52;8.90;92.02
67279;DHT22;54193;53.746;10.058;2022-11-15T17:12:38;8.80;92.09
67279;DHT22;54193;53.746;10.058;2022-11-15T17:15:24;8.79;92.34
67279;DHT22;54193;53.746;10.058;2022-11-15T17:18:11;8.64;92.43
67279;DHT22;54193;53.746;10.058;2022-11-15T17:20:57;8.57;92.61
67279;DHT22;54193;53.746;10.058;2022-11-15T17:23:47;8.55;92.65
67279;DHT22;54193;53.746;10.058;2022-11-15T17:26:33;8.55;92.77
67279;DHT22;54193;53.746;10.058;2022-11-15T17:29:19;8.59;92.91
67279;DHT22;54193;53.746;10.058;2022-11-15T17:32:04;8.54;93.00
67279;DHT22;54193;53.746;10.058;2022-11-15T17:34:50;8.66;93.24
67279;DHT22;54193;53.746;10.058;2022-11-15T17:37:36;8.73;93.26
67279;DHT22;54193;53.746;10.058;2022-11-15T17:40:21;8.73;93.22
67279;DHT22;54193;53.746;10.058;2022-11-15T17:43:07;8.75;93.23
67279;DHT22;54193;53.746;10.058;2022-11-15T17:45:52;8.76;93.27
67279;DHT22;54193;53.746;10.058;2022-11-15T17:48:38;8.75;93.23
67279;DHT22;54193;53.746;10.058;2022-11-15T17:51:24;8.75;93.22
67279;DHT22;54193;53.746;10.058;2022-11-15T17:54:10;8.71;93.26
67279;DHT22;54193;53.746;10.058;2022-11-15T17:56:57;8.73;93.37
67279;DHT22;54193;53.746;10.058;2022-11-15T17:59:42;8.71;93.41
67279;DHT22;54193;53.746;10.058;2022-11-15T18:02:29;8.82;93.55
67279;DHT22;54193;53.746;10.058;2022-11-15T18:05:14;8.83;93.65
67279;DHT22;54193;53.746;10.058;2022-11-15T18:08:00;8.92;93.64
67279;DHT22;54193;53.746;10.058;2022-11-15T18:10:46;8.97;93.58
67279;DHT22;54193;53.746;10.058;2022-11-15T18:13:31;8.96;93.59
67279;DHT22;54193;53.746;10.058;2022-11-15T18:16:20;8.93;93.53
67279;DHT22;54193;53.746;10.058;2022-11-15T18:19:06;8.95;93.59
67279;DHT22;54193;53.746;10.058;2022-11-15T18:21:58;9.04;93.48
67279;DHT22;54193;53.746;10.058;2022-11-15T18:24:45;9.07;93.48
67279;DHT22;54193;53.746;10.058;2022-11-15T18:27:31;9.13;93.45
67279;DHT22;54193;53.746;10.058;2022-11-15T18:30:17;9.19;93.24
67279;DHT22;54193;53.746;10.058;2022-11-15T18:33:03;9.27;93.03
67279;DHT22;54193;53.746;10.058;2022-11-15T18:35:48;9.26;92.88
67279;DHT22;54193;53.746;10.058;2022-11-15T18:38:34;9.28;92.79
67279;DHT22;54193;53.746;10.058;2022-11-15T18:41:20;9.34;92.59
67279;DHT22;54193;53.746;10.058;2022-11-15T18:44:09;9.42;92.44
67279;DHT22;54193;53.746;10.058;2022-11-15T18:46:55;9.47;92.28
67279;DHT22;54193;53.746;10.058;2022-11-15T18:49:40;9.52;92.23
67279;DHT22;54193;53.746;10.058;2022-11-15T18:52:26;9.57;92.07
67279;DHT22;54193;53.746;10.058;2022-11-15T18:55:12;9.58;91.98
67279;DHT22;54193;53.746;10.058;2022-11-15T18:57:58;9.61;91.97
67279;DHT22;54193;53.746;10.058;2022-11-15T19:00:44;9.69;91.75
67279;DHT22;54193;53.746;10.058;2022-11-15T19:03:33;9.75;91.58
67279;DHT22;54193;53.746;10.058;2022-11-15T19:06:24;9.81;91.41
67279;DHT22;54193;53.746;10.058;2022-11-15T19:09:12;9.86;91.26
67279;DHT22;54193;53.746;10.058;2022-11-15T19:11:59;9.82;91.26
67279;DHT22;54193;53.746;10.058;2022-11-15T19:14:45;9.79;91.37
67279;DHT22;54193;53.746;10.058;2022-11-15T19:17:31;9.81;91.41
67279;DHT22;54193;53.746;10.058;2022-11-15T19:20:16;9.86;91.15